Time;durP1;ratioP1;P1;durP2;ratioP2;P2;SDS_P1;SDS_P2;PMS_P1;PMS_P2;Temp;Humidity;BMP_temperature;BMP_pressure;BME280_temperature;BME280_humidity;BME280_pressure;Samples;Min_cycle;Max_cycle;Signal;HPM_P1;HPM_P2
2021/10/02 00:36:49;;;;;;;29.52;17.08;;;;;;;13.54;100.00;98422.09;5052042;28;20508;-78
2021/10/02 00:41:35;;;;;;;32.33;17.92;;;;;;;13.44;100.00;98429.75;5052608;28;20108;-79
2021/10/02 00:46:47;;;;;;;30.75;17.48;;;;;;;13.41;100.00;98415.47;5051133;28;20047;-78
2021/10/02 00:49:13;;;;;;;27.85;18.38;;;;;;;13.46;100.00;98403.56;5051508;28;20044;-78
2021/10/02 00:51:40;;;;;;;31.10;17.45;;;;;;;13.55;100.00;98417.44;5050073;28;20033;-78
2021/10/02 00:54:06;;;;;;;25.67;16.95;;;;;;;13.58;100.00;98423.13;5050597;28;20052;-78
2021/10/02 00:56:32;;;;;;;30.08;17.55;;;;;;;13.51;100.00;98403.47;5041891;28;20060;-77
2021/10/02 00:58:57;;;;;;;27.13;17.10;;;;;;;13.55;100.00;98410.00;5041280;28;20540;-79
2021/10/02 01:01:31;;;;;;;29.90;18.02;;;;;;;13.47;100.00;98398.91;5037552;28;20034;-78
2021/10/02 01:04:12;;;;;;;26.23;17.08;;;;;;;13.50;100.00;98410.06;5031335;28;20029;-79
2021/10/02 01:06:49;;;;;;;27.08;17.95;;;;;;;13.46;100.00;98411.81;5029205;28;20112;-77
2021/10/02 01:09:28;;;;;;;28.75;17.38;;;;;;;13.44;100.00;98405.78;5030372;28;20037;-78
2021/10/02 01:12:11;;;;;;;29.55;17.77;;;;;;;13.40;100.00;98404.78;5029969;28;20445;-77
2021/10/02 01:14:40;;;;;;;34.80;19.13;;;;;;;13.30;100.00;98405.78;5031006;28;20041;-77
2021/10/02 01:17:14;;;;;;;28.52;18.70;;;;;;;13.34;100.00;98395.00;5032714;28;20064;-77
2021/10/02 01:20:15;;;;;;;29.13;17.13;;;;;;;13.34;100.00;98384.03;5037497;28;20460;-77
2021/10/02 01:22:54;;;;;;;31.20;17.80;;;;;;;13.31;100.00;98390.91;5035326;28;20039;-78
2021/10/02 01:25:57;;;;;;;30.17;19.13;;;;;;;13.29;100.00;98387.66;5028964;28;20022;-79
2021/10/02 01:28:26;;;;;;;28.98;19.15;;;;;;;13.34;100.00;98395.00;5030660;28;20483;-77
2021/10/02 01:47:14;;;;;;;31.90;19.83;;;;;;;13.38;100.00;98357.53;5010540;28;20041;-79
2021/10/02 01:49:46;;;;;;;30.92;18.42;;;;;;;13.29;100.00;98362.13;5010161;28;20109;-77
2021/10/02 01:52:14;;;;;;;37.50;19.38;;;;;;;13.27;100.00;98369.84;5041934;28;20555;-77
2021/10/02 01:54:41;;;;;;;26.65;17.73;;;;;;;13.27;100.00;98361.63;5042223;28;20108;-77
2021/10/02 01:57:08;;;;;;;30.38;19.85;;;;;;;13.30;100.00;98356.34;5011419;28;20036;-79
2021/10/02 01:59:35;;;;;;;29.35;18.25;;;;;;;13.29;100.00;98362.94;5011850;28;20053;-78
2021/10/02 02:02:01;;;;;;;32.53;19.73;;;;;;;13.15;100.00;98348.38;5011147;28;20577;-79
2021/10/02 02:04:28;;;;;;;35.28;18.75;;;;;;;13.20;100.00;98363.94;5010318;28;20030;-79
2021/10/02 02:06:57;;;;;;;31.23;20.65;;;;;;;13.22;100.00;98348.78;5009627;28;20030;-79
2021/10/02 02:09:25;;;;;;;30.90;19.58;;;;;;;13.29;100.00;98348.38;5040070;28;20090;-77
2021/10/02 02:11:52;;;;;;;30.65;19.85;;;;;;;13.20;100.00;98328.22;5041150;28;20056;-77
2021/10/02 02:14:18;;;;;;;32.72;19.15;;;;;;;13.18;100.00;98338.72;5033974;28;20021;-79
2021/10/02 02:16:46;;;;;;;30.55;18.40;;;;;;;13.16;100.00;98327.19;5033550;28;20513;-78
2021/10/02 02:19:13;;;;;;;29.83;16.90;;;;;;;13.33;100.00;98349.41;5033680;28;20136;-78
2021/10/02 02:21:39;;;;;;;27.52;16.98;;;;;;;13.30;100.00;98352.75;5038633;28;20512;-79
2021/10/02 02:24:05;;;;;;;34.58;18.60;;;;;;;13.16;100.00;98329.94;5043969;28;20033;-79
2021/10/02 02:26:30;;;;;;;36.58;18.20;;;;;;;13.10;100.00;98331.97;5036842;28;20030;-78
2021/10/02 02:28:57;;;;;;;33.45;18.95;;;;;;;13.08;100.00;98342.44;5034136;28;20044;-78
2021/10/02 02:31:23;;;;;;;33.78;19.67;;;;;;;13.03;100.00;98341.69;5031771;28;20029;-79
2021/10/02 02:33:49;;;;;;;31.25;19.63;;;;;;;12.97;100.00;98329.97;5025946;28;20038;-79
2021/10/02 02:36:14;;;;;;;33.83;18.55;;;;;;;13.04;100.00;98337.81;5013756;28;20624;-78
2021/10/02 02:38:40;;;;;;;33.13;18.50;;;;;;;13.08;100.00;98328.72;5026908;28;20030;-79
2021/10/02 02:41:06;;;;;;;30.52;18.25;;;;;;;13.05;100.00;98331.22;5034336;28;20097;-80
2021/10/02 02:43:36;;;;;;;33.10;18.50;;;;;;;13.04;100.00;98335.88;5041884;28;20029;-81
2021/10/02 02:46:08;;;;;;;38.33;20.02;;;;;;;12.93;100.00;98317.16;5053221;28;20033;-80
2021/10/02 02:48:45;;;;;;;33.40;18.83;;;;;;;12.95;100.00;98326.72;5052393;28;20024;-81
2021/10/02 02:51:17;;;;;;;32.92;18.92;;;;;;;13.00;100.00;98332.09;5060795;28;20425;-78
2021/10/02 02:53:52;;;;;;;35.00;19.40;;;;;;;13.03;100.00;98330.72;5056090;28;20044;-79
2021/10/02 02:56:26;;;;;;;35.50;19.48;;;;;;;13.04;100.00;98330.41;5061586;28;20028;-79
2021/10/02 02:58:55;;;;;;;39.55;20.80;;;;;;;12.93;100.00;98311.66;5055847;28;20037;-79
2021/10/02 03:01:22;;;;;;;35.22;20.00;;;;;;;13.00;100.00;98323.88;5055817;28;20032;-80
2021/10/02 03:03:50;;;;;;;34.15;19.63;;;;;;;13.00;100.00;98317.59;5053586;28;20033;-79
2021/10/02 03:06:18;;;;;;;35.15;19.92;;;;;;;12.94;100.00;98329.78;5045538;28;20417;-80
2021/10/02 03:08:47;;;;;;;28.48;17.60;;;;;;;12.94;100.00;98335.28;5044903;28;20029;-78
2021/10/02 03:11:14;;;;;;;35.20;18.90;;;;;;;12.95;100.00;98342.38;5047378;28;20128;-77
2021/10/02 03:13:41;;;;;;;35.63;19.70;;;;;;;12.99;100.00;98338.75;5053740;28;20050;-79
2021/10/02 03:16:13;;;;;;;37.08;19.83;;;;;;;12.87;100.00;98317.22;5052006;28;20124;-80
2021/10/02 03:18:41;;;;;;;33.60;19.13;;;;;;;12.88;100.00;98329.03;5051666;28;20120;-80
2021/10/02 03:21:07;;;;;;;33.17;19.30;;;;;;;13.02;100.00;98327.16;5046927;28;20102;-79
2021/10/02 03:23:33;;;;;;;32.85;19.15;;;;;;;13.12;100.00;98334.44;5041114;28;20033;-78
2021/10/02 03:26:01;;;;;;;34.20;21.10;;;;;;;13.14;100.00;98332.19;5048828;28;20501;-77
2021/10/02 03:28:30;;;;;;;36.88;19.65;;;;;;;13.02;100.00;98331.81;5065766;28;20041;-78
2021/10/02 03:30:57;;;;;;;31.58;18.38;;;;;;;12.92;100.00;98321.00;5065195;28;20022;-79
2021/10/02 03:33:24;;;;;;;37.47;20.15;;;;;;;12.81;100.00;98315.69;5032638;28;20041;-78
2021/10/02 03:35:50;;;;;;;35.05;18.48;;;;;;;12.79;100.00;98317.13;5064348;28;20028;-78
2021/10/02 03:38:16;;;;;;;31.85;18.05;;;;;;;12.86;100.00;98326.59;5033394;28;20029;-78
2021/10/02 03:40:41;;;;;;;31.15;18.50;;;;;;;12.74;100.00;98311.72;5033385;28;20395;-79
2021/10/02 03:43:07;;;;;;;31.27;18.42;;;;;;;12.79;100.00;98322.59;5033737;28;20056;-79
2021/10/02 03:45:36;;;;;;;28.55;17.17;;;;;;;12.97;100.00;98340.94;5033323;28;20029;-78
2021/10/02 03:48:03;;;;;;;31.50;17.30;;;;;;;12.77;100.00;98303.69;5033229;28;20025;-78
2021/10/02 03:50:28;;;;;;;31.05;17.70;;;;;;;13.03;100.00;98327.97;5032415;28;20360;-78
2021/10/02 03:52:54;;;;;;;32.40;18.50;;;;;;;12.98;100.00;98315.13;5033722;28;20091;-77
2021/10/02 03:55:19;;;;;;;31.75;17.50;;;;;;;13.07;100.00;98318.81;5036607;28;20018;-80
2021/10/02 03:57:45;;;;;;;28.40;16.90;;;;;;;13.07;100.00;98323.47;5042132;28;20044;-78
2021/10/02 04:00:12;;;;;;;30.48;18.42;;;;;;;13.02;100.00;98315.34;5042650;28;20076;-77
2021/10/02 04:02:38;;;;;;;30.40;17.67;;;;;;;13.13;100.00;98316.81;5055826;28;20029;-81
2021/10/02 04:05:04;;;;;;;28.67;17.83;;;;;;;13.10;100.00;98322.91;5056570;28;20024;-80
2021/10/02 04:07:29;;;;;;;29.48;17.40;;;;;;;12.98;100.00;98322.53;5055955;28;20078;-79
2021/10/02 04:09:55;;;;;;;29.40;17.92;;;;;;;12.90;100.00;98322.13;5062020;28;20097;-80
2021/10/02 04:12:20;;;;;;;27.73;17.73;;;;;;;12.79;100.00;98315.19;5062837;28;20036;-81
2021/10/02 04:14:48;;;;;;;29.48;17.63;;;;;;;12.77;100.00;98322.91;5060924;28;20029;-79
2021/10/02 04:17:14;;;;;;;33.30;18.70;;;;;;;12.63;100.00;98316.56;5057185;28;20236;-82
2021/10/02 04:19:40;;;;;;;34.15;19.90;;;;;;;12.63;100.00;98324.78;5054280;28;20321;-81
2021/10/02 04:22:05;;;;;;;33.03;17.77;;;;;;;12.68;100.00;98323.91;5055649;28;20519;-77
2021/10/02 04:24:31;;;;;;;37.65;19.55;;;;;;;12.61;100.00;98321.53;5052616;28;20067;-75
2021/10/02 04:26:58;;;;;;;31.42;18.67;;;;;;;12.72;100.00;98328.47;5043814;28;20025;-76
2021/10/02 04:29:28;;;;;;;31.88;18.45;;;;;;;12.71;100.00;98326.88;5030536;28;20490;-78
2021/10/02 04:31:54;;;;;;;31.50;18.67;;;;;;;12.70;100.00;98319.75;5040081;28;20029;-80
2021/10/02 04:34:19;;;;;;;37.28;18.60;;;;;;;12.79;100.00;98328.09;5043058;28;20029;-80
2021/10/02 04:36:45;;;;;;;33.15;18.10;;;;;;;12.50;100.00;98317.31;5039696;28;20493;-79
2021/10/02 04:39:10;;;;;;;31.15;18.17;;;;;;;12.50;100.00;98322.78;5033973;28;20030;-78
2021/10/02 04:41:36;;;;;;;35.17;19.02;;;;;;;12.46;100.00;98324.53;5033484;28;20436;-76
2021/10/02 04:44:01;;;;;;;31.20;18.23;;;;;;;12.50;100.00;98327.50;5033195;28;20025;-78
2021/10/02 04:46:27;;;;;;;36.13;19.70;;;;;;;12.29;100.00;98326.97;5031393;28;20082;-79
2021/10/02 04:48:52;;;;;;;32.33;18.38;;;;;;;12.20;100.00;98326.00;5031803;28;20084;-75
2021/10/02 04:51:18;;;;;;;31.70;18.38;;;;;;;12.22;100.00;98337.50;5036582;28;21510;-75
2021/10/02 04:53:44;;;;;;;34.90;19.45;;;;;;;12.25;100.00;98334.97;5036188;28;20111;-75
2021/10/02 04:56:12;;;;;;;34.10;18.35;;;;;;;12.18;100.00;98317.28;5032209;28;20120;-73
2021/10/02 04:58:38;;;;;;;33.53;18.35;;;;;;;12.21;100.00;98327.66;5030233;28;20029;-74
2021/10/02 05:01:06;;;;;;;40.55;20.05;;;;;;;12.19;100.00;98338.09;5028141;28;20036;-74
2021/10/02 05:03:32;;;;;;;33.00;20.02;;;;;;;12.27;100.00;98342.91;5029895;28;20030;-75
2021/10/02 05:05:57;;;;;;;31.67;19.20;;;;;;;12.34;100.00;98338.69;5030017;28;20038;-73
2021/10/02 05:08:23;;;;;;;36.65;20.02;;;;;;;12.32;100.00;98340.91;5034121;28;20064;-79
2021/10/02 05:10:48;;;;;;;34.00;18.95;;;;;;;12.32;100.00;98343.66;5044757;28;20112;-75
2021/10/02 05:13:14;;;;;;;32.67;19.63;;;;;;;12.31;100.00;98344.75;5042707;28;20120;-74
2021/10/02 05:15:41;;;;;;;29.58;18.77;;;;;;;12.34;100.00;98338.69;5031912;28;20021;-73
2021/10/02 05:18:06;;;;;;;33.83;18.80;;;;;;;12.42;100.00;98334.47;5030699;28;20131;-75
2021/10/02 05:20:32;;;;;;;34.67;18.35;;;;;;;12.48;100.00;98338.75;5032908;28;20041;-75
2021/10/02 05:22:57;;;;;;;31.73;17.98;;;;;;;12.55;100.00;98332.91;5036350;28;20060;-76
2021/10/02 05:25:23;;;;;;;31.73;17.65;;;;;;;12.58;100.00;98337.78;5038187;28;20065;-75
2021/10/02 05:27:49;;;;;;;33.28;18.73;;;;;;;12.54;100.00;98343.03;5039664;28;20029;-77
2021/10/02 05:30:14;;;;;;;30.98;19.00;;;;;;;12.47;100.00;98334.38;5046412;28;20032;-75
2021/10/02 05:32:40;;;;;;;35.17;19.65;;;;;;;12.57;100.00;98336.97;5056699;28;20033;-75
2021/10/02 05:35:06;;;;;;;30.83;17.92;;;;;;;12.67;100.00;98347.78;5053553;28;20029;-76
2021/10/02 05:37:31;;;;;;;42.47;18.50;;;;;;;12.72;100.00;98338.63;5051115;28;20035;-77
2021/10/02 05:39:57;;;;;;;32.40;18.38;;;;;;;12.77;100.00;98346.81;5085318;28;20033;-76
2021/10/02 05:42:22;;;;;;;30.88;17.27;;;;;;;12.87;100.00;98339.19;5056801;28;20040;-79
2021/10/02 05:44:48;;;;;;;34.88;18.98;;;;;;;12.95;100.00;98345.13;5042503;28;20091;-76
2021/10/02 05:47:13;;;;;;;30.20;18.15;;;;;;;12.96;100.00;98339.34;5039594;28;20033;-76
2021/10/02 05:49:41;;;;;;;27.80;17.38;;;;;;;13.04;100.00;98340.56;5037554;28;20017;-76
2021/10/02 05:52:09;;;;;;;29.95;18.70;;;;;;;13.21;100.00;98341.66;5033150;28;20835;-76
2021/10/02 05:54:34;;;;;;;34.17;18.35;;;;;;;13.25;100.00;98342.66;5032875;28;20474;-77
2021/10/02 05:57:00;;;;;;;35.03;18.92;;;;;;;13.33;100.00;98341.16;5032935;28;20037;-78
2021/10/02 05:59:25;;;;;;;29.08;17.50;;;;;;;13.58;100.00;98340.69;5034840;28;20093;-79
2021/10/02 06:01:50;;;;;;;27.13;16.70;;;;;;;13.67;100.00;98332.53;5033784;28;20036;-75
2021/10/02 06:04:16;;;;;;;25.45;17.27;;;;;;;13.71;100.00;98334.38;5032751;28;20021;-77
2021/10/02 06:06:41;;;;;;;27.33;17.27;;;;;;;13.64;100.00;98328.47;5033127;28;20029;-77
2021/10/02 06:09:07;;;;;;;30.10;16.85;;;;;;;13.71;100.00;98339.06;5066592;28;20390;-78
2021/10/02 06:11:32;;;;;;;33.53;17.08;;;;;;;13.71;100.00;98337.13;5034524;28;20013;-78
2021/10/02 06:13:58;;;;;;;34.67;17.40;;;;;;;13.67;100.00;98332.53;5033401;28;20029;-77
2021/10/02 06:16:24;;;;;;;26.10;16.70;;;;;;;13.80;100.00;98349.03;5034286;28;20030;-79
2021/10/02 06:18:50;;;;;;;30.13;17.50;;;;;;;13.86;100.00;98342.28;5041491;28;20021;-77
2021/10/02 06:21:15;;;;;;;28.25;16.88;;;;;;;13.95;100.00;98345.94;5037551;28;20057;-77
2021/10/02 06:23:44;;;;;;;27.23;16.90;;;;;;;14.09;100.00;98361.63;5042607;28;20025;-75
2021/10/02 06:26:10;;;;;;;33.88;18.20;;;;;;;14.26;100.00;98359.03;5064061;28;20034;-77
2021/10/02 06:28:36;;;;;;;30.70;17.42;;;;;;;14.12;100.00;98358.25;5044412;28;20074;-75
2021/10/02 06:31:02;;;;;;;26.17;16.83;;;;;;;14.12;100.00;98352.75;5034098;28;20089;-75
2021/10/02 06:33:29;;;;;;;28.90;16.67;;;;;;;14.36;100.00;98358.84;5038897;28;20616;-75
2021/10/02 06:35:55;;;;;;;25.90;15.73;;;;;;;14.33;100.00;98362.22;5039370;28;20042;-74
2021/10/02 06:38:20;;;;;;;29.35;16.90;;;;;;;14.43;100.00;98367.50;5042409;28;20474;-75
2021/10/02 06:40:46;;;;;;;25.75;16.50;;;;;;;14.63;100.00;98372.50;5030838;28;20041;-76
2021/10/02 06:43:12;;;;;;;28.33;17.00;;;;;;;14.71;100.00;98369.03;5028952;28;20041;-75
2021/10/02 06:45:38;;;;;;;28.60;16.67;;;;;;;14.79;99.92;98381.22;5029025;28;20029;-74
2021/10/02 06:48:04;;;;;;;28.55;16.67;;;;;;;14.86;99.69;98376.94;5037325;28;20030;-76
2021/10/02 06:50:30;;;;;;;25.85;16.48;;;;;;;14.71;100.00;98373.72;5035832;28;20048;-75
2021/10/02 06:52:55;;;;;;;34.38;18.38;;;;;;;14.95;98.96;98355.75;5039192;28;20474;-74
2021/10/02 06:55:22;;;;;;;32.47;20.27;;;;;;;15.20;96.03;98378.28;5041077;28;20032;-75
2021/10/02 06:57:47;;;;;;;27.00;17.70;;;;;;;15.21;94.76;98363.38;5036006;28;20029;-76
2021/10/02 07:00:13;;;;;;;30.88;17.90;;;;;;;15.28;94.78;98378.34;5042789;28;20051;-75
2021/10/02 07:02:43;;;;;;;31.65;19.10;;;;;;;15.28;95.29;98383.06;5048859;28;20050;-74
2021/10/02 07:05:10;;;;;;;27.30;16.45;;;;;;;15.25;95.01;98375.41;5031103;28;20129;-76
2021/10/02 07:07:37;;;;;;;31.30;17.90;;;;;;;15.12;94.83;98379.06;5032559;28;20041;-74
2021/10/02 07:10:04;;;;;;;27.77;18.13;;;;;;;14.92;95.59;98370.16;5031526;28;20037;-74
2021/10/02 07:12:29;;;;;;;33.40;17.75;;;;;;;14.58;96.49;98378.16;5032555;28;20124;-79
2021/10/02 07:14:54;;;;;;;30.52;17.23;;;;;;;14.66;97.07;98385.66;5047439;28;20093;-83
2021/10/02 07:17:20;;;;;;;33.75;19.40;;;;;;;14.70;96.38;98378.41;5056023;28;20105;-84
2021/10/02 07:19:45;;;;;;;27.35;17.83;;;;;;;14.91;94.28;98396.06;5055672;28;20046;-83
2021/10/02 07:22:11;;;;;;;26.02;15.90;;;;;;;15.09;93.93;98391.53;5048895;28;20044;-77
2021/10/02 07:24:36;;;;;;;36.03;18.33;;;;;;;15.30;91.98;98394.56;5032921;28;20049;-74
2021/10/02 07:27:02;;;;;;;34.65;23.55;;;;;;;15.55;89.55;98388.41;5032195;28;20156;-77
2021/10/02 07:29:28;;;;;;;38.97;22.92;;;;;;;15.71;88.61;98394.31;5033806;28;20029;-80
2021/10/02 07:31:53;;;;;;;27.50;16.98;;;;;;;15.98;88.05;98389.41;5037446;28;20037;-78
2021/10/02 07:34:19;;;;;;;35.25;20.67;;;;;;;16.25;86.07;98395.81;5048446;28;20040;-79
2021/10/02 07:36:44;;;;;;;26.92;19.00;;;;;;;16.28;83.93;98390.47;5040095;28;20163;-79
2021/10/02 07:39:10;;;;;;;43.47;28.35;;;;;;;16.31;82.90;98395.34;5032870;28;20028;-80
2021/10/02 07:41:41;;;;;;;38.85;24.02;;;;;;;16.53;81.73;98391.63;5047856;28;20106;-80
2021/10/02 07:44:10;;;;;;;31.60;21.90;;;;;;;16.58;80.96;98397.03;5047214;28;20029;-80
2021/10/02 07:46:38;;;;;;;29.15;17.13;;;;;;;16.94;80.56;98383.72;5044284;28;20032;-79
2021/10/02 07:49:04;;;;;;;25.35;15.13;;;;;;;17.33;78.38;98392.91;5044786;28;20021;-81
2021/10/02 07:51:30;;;;;;;26.45;15.90;;;;;;;17.55;75.82;98382.50;5055574;28;20083;-80
2021/10/02 07:53:55;;;;;;;26.15;15.57;;;;;;;17.60;75.05;98393.38;5041707;28;20034;-79
2021/10/02 07:56:21;;;;;;;23.42;14.70;;;;;;;17.66;74.09;98388.50;5038806;28;20037;-80
2021/10/02 07:58:49;;;;;;;25.48;14.85;;;;;;;17.45;74.10;98390.28;5044880;28;20032;-81
2021/10/02 08:01:15;;;;;;;20.42;13.32;;;;;;;17.49;70.49;98391.25;5040614;28;20042;-80
2021/10/02 08:03:41;;;;;;;18.65;11.32;;;;;;;17.36;66.25;98395.03;5036991;28;20029;-79
2021/10/02 08:06:07;;;;;;;14.32;10.55;;;;;;;17.84;63.62;98386.47;5040621;28;20149;-81
2021/10/02 08:08:34;;;;;;;17.65;10.00;;;;;;;18.33;61.30;98376.56;5041886;28;20020;-78
2021/10/02 08:11:00;;;;;;;14.75;9.88;;;;;;;18.72;59.00;98384.50;5041832;28;20056;-79
2021/10/02 08:13:26;;;;;;;15.05;10.30;;;;;;;18.30;59.99;98388.34;5043387;28;20032;-79
2021/10/02 08:15:57;;;;;;;10.48;7.80;;;;;;;17.12;60.95;98385.31;5040882;28;20041;-79
2021/10/02 08:18:25;;;;;;;13.15;9.18;;;;;;;16.80;62.89;98393.31;5040723;28;20061;-78
2021/10/02 08:20:54;;;;;;;11.35;9.07;;;;;;;16.96;63.31;98400.78;5041565;28;20075;-79
2021/10/02 08:23:23;;;;;;;16.83;10.55;;;;;;;16.95;63.48;98395.56;5044345;28;20033;-80
2021/10/02 08:25:50;;;;;;;15.90;11.43;;;;;;;16.82;63.72;98389.06;5043854;28;20030;-77
2021/10/02 08:28:16;;;;;;;15.85;11.32;;;;;;;16.60;65.33;98394.78;5039641;28;20029;-80
2021/10/02 08:30:44;;;;;;;14.15;9.18;;;;;;;16.02;65.32;98379.34;5041603;28;20021;-80
2021/10/02 08:33:11;;;;;;;16.10;10.60;;;;;;;16.24;64.99;98400.53;5047486;28;20028;-79
2021/10/02 08:35:37;;;;;;;14.32;10.00;;;;;;;16.25;64.40;98382.81;5040610;28;20040;-79
2021/10/02 08:38:03;;;;;;;12.80;9.45;;;;;;;16.22;64.33;98379.91;5043654;28;20025;-80
2021/10/02 08:40:28;;;;;;;16.75;11.68;;;;;;;15.99;66.70;98382.75;5042296;28;20021;-81
2021/10/02 08:42:54;;;;;;;14.95;10.55;;;;;;;15.89;66.68;98393.25;5048127;28;20482;-81
2021/10/02 08:45:21;;;;;;;16.75;11.57;;;;;;;16.08;65.76;98386.34;5046576;28;20033;-77
2021/10/02 08:47:47;;;;;;;17.58;10.88;;;;;;;16.29;66.27;98394.03;5048929;28;20107;-77
2021/10/02 08:50:17;;;;;;;14.73;10.65;;;;;;;16.35;66.02;98392.75;5031428;28;20037;-77
2021/10/02 08:52:43;;;;;;;17.30;11.23;;;;;;;16.23;66.29;98389.78;5032237;28;20073;-77
2021/10/02 08:55:10;;;;;;;17.13;11.15;;;;;;;16.40;65.52;98370.50;5028915;28;20059;-77
2021/10/02 08:57:37;;;;;;;16.80;10.65;;;;;;;16.51;64.75;98383.66;5031287;28;20116;-77
2021/10/02 09:00:09;;;;;;;17.30;11.88;;;;;;;16.76;64.14;98376.56;5032356;28;20469;-78
2021/10/02 09:02:36;;;;;;;19.08;12.65;;;;;;;17.04;64.28;98380.59;5028575;28;20029;-77
2021/10/02 09:05:03;;;;;;;17.60;11.63;;;;;;;18.23;60.14;98382.53;5030189;28;20021;-77
2021/10/02 09:07:30;;;;;;;16.02;11.60;;;;;;;19.38;56.82;98390.94;5031399;28;20040;-76
2021/10/02 09:09:56;;;;;;;14.07;10.45;;;;;;;19.77;55.97;98381.19;5029490;28;20037;-74
2021/10/02 09:12:24;;;;;;;19.50;11.90;;;;;;;19.74;55.21;98381.88;5031013;28;20078;-74
2021/10/02 09:14:52;;;;;;;19.05;11.52;;;;;;;19.91;53.96;98384.47;5029798;28;20029;-77
2021/10/02 09:17:18;;;;;;;18.05;12.40;;;;;;;19.71;54.80;98383.38;5029993;28;20027;-75
2021/10/02 09:19:43;;;;;;;16.83;11.35;;;;;;;19.75;54.85;98375.19;5009823;28;20697;-75
2021/10/02 09:22:11;;;;;;;16.90;11.07;;;;;;;19.70;54.84;98375.41;5012052;28;20038;-74
2021/10/02 09:24:42;;;;;;;17.40;11.50;;;;;;;19.17;56.13;98373.53;5011141;28;20037;-80
2021/10/02 09:27:38;;;;;;;18.33;12.05;;;;;;;19.01;56.61;98376.13;5037918;28;20416;-73
2021/10/02 09:30:11;;;;;;;18.13;12.55;;;;;;;18.59;57.14;98375.31;5052580;28;20025;-77
2021/10/02 09:32:38;;;;;;;18.35;11.63;;;;;;;18.30;58.79;98371.72;5039066;28;20033;-78
2021/10/02 09:35:17;;;;;;;18.05;11.52;;;;;;;18.22;59.47;98373.41;5038359;28;20029;-77
2021/10/02 09:37:45;;;;;;;18.95;12.85;;;;;;;18.23;59.22;98360.38;5031697;28;20030;-76
2021/10/02 09:40:18;;;;;;;15.85;12.15;;;;;;;18.47;58.34;98369.66;5035357;28;20501;-74
2021/10/02 09:42:44;;;;;;;22.05;11.85;;;;;;;18.09;59.30;98360.59;5034192;28;20092;-79
2021/10/02 09:45:16;;;;;;;16.80;11.48;;;;;;;17.78;60.01;98373.94;5067419;28;20564;-79
2021/10/02 09:47:42;;;;;;;20.27;12.60;;;;;;;17.81;60.20;98364.97;5019288;28;20057;-76
2021/10/02 09:50:08;;;;;;;18.25;11.77;;;;;;;18.04;59.96;98375.44;5035099;28;20045;-76
2021/10/02 09:52:37;;;;;;;15.98;12.00;;;;;;;17.75;60.49;98371.84;5035945;28;20029;-75
2021/10/02 09:55:18;;;;;;;17.05;12.63;;;;;;;17.90;63.40;98374.88;5068098;28;20041;-73
2021/10/02 09:57:46;;;;;;;17.73;12.52;;;;;;;18.12;63.81;98382.09;5032973;28;20048;-77
2021/10/02 10:00:14;;;;;;;17.67;12.57;;;;;;;17.88;64.96;98377.16;5048164;28;20033;-73
2021/10/02 10:02:42;;;;;;;18.60;12.02;;;;;;;17.92;60.83;98377.28;5031636;28;20449;-78
2021/10/02 10:05:10;;;;;;;17.42;12.40;;;;;;;18.06;60.42;98384.25;5031317;28;20059;-76
2021/10/02 10:07:36;;;;;;;16.70;11.57;;;;;;;17.67;61.25;98366.00;5028881;28;20030;-72
2021/10/02 10:10:13;;;;;;;19.27;11.88;;;;;;;17.99;61.13;98366.50;5035660;28;20029;-72
2021/10/02 10:12:40;;;;;;;18.52;11.70;;;;;;;18.47;60.85;98368.84;5043217;28;20091;-73
2021/10/02 10:15:25;;;;;;;15.57;11.68;;;;;;;18.54;58.48;98360.84;5027740;28;20029;-72
2021/10/02 10:17:51;;;;;;;18.90;12.13;;;;;;;18.30;58.96;98361.44;5014035;28;20030;-72
2021/10/02 10:20:16;;;;;;;20.77;14.05;;;;;;;18.12;60.05;98360.75;5035387;28;20517;-73
2021/10/02 10:22:42;;;;;;;15.52;11.57;;;;;;;18.05;60.11;98366.00;5029438;28;20029;-77
2021/10/02 10:25:11;;;;;;;20.25;14.30;;;;;;;18.19;59.37;98354.69;5021017;28;20100;-76
2021/10/02 10:27:47;;;;;;;19.63;12.77;;;;;;;18.50;59.40;98360.69;5029333;28;20037;-77
2021/10/02 10:30:19;;;;;;;19.50;12.02;;;;;;;18.69;60.55;98374.91;5029477;28;20047;-77
2021/10/02 10:33:02;;;;;;;15.55;11.63;;;;;;;18.95;57.47;98368.34;5031386;28;20026;-75
2021/10/02 10:35:32;;;;;;;16.25;10.93;;;;;;;18.56;60.87;98348.28;5040402;28;20036;-74
2021/10/02 10:37:58;;;;;;;14.45;11.23;;;;;;;18.95;57.90;98338.63;5053004;28;20077;-76
2021/10/02 10:40:23;;;;;;;17.70;12.43;;;;;;;19.53;58.77;98342.31;5053325;28;20108;-75
2021/10/02 10:42:51;;;;;;;16.27;11.07;;;;;;;20.04;55.62;98361.09;5032522;28;20041;-73
2021/10/02 10:45:17;;;;;;;16.85;11.60;;;;;;;20.35;56.37;98349.41;5015389;28;20030;-73
2021/10/02 10:47:44;;;;;;;15.23;12.00;;;;;;;20.44;54.45;98360.41;5013094;28;20133;-73
2021/10/02 10:50:10;;;;;;;16.48;11.77;;;;;;;20.29;55.26;98365.53;5013537;28;20069;-75
2021/10/02 10:52:40;;;;;;;18.85;11.90;;;;;;;20.82;52.47;98360.78;5023607;28;20552;-76
2021/10/02 10:55:17;;;;;;;19.05;12.07;;;;;;;21.08;51.75;98352.78;5024253;28;20045;-85
2021/10/02 10:57:45;;;;;;;17.20;12.05;;;;;;;21.54;50.24;98365.22;5036418;28;20544;-87
2021/10/02 11:00:19;;;;;;;14.57;11.77;;;;;;;21.41;49.77;98371.22;5034138;28;20092;-83
2021/10/02 11:02:47;;;;;;;17.33;11.70;;;;;;;21.15;53.50;98369.72;5033530;28;20095;-84
2021/10/02 11:05:34;;;;;;;14.00;11.05;;;;;;;21.04;50.46;98364.97;5036653;28;20048;-87
2021/10/02 11:08:10;;;;;;;16.13;12.07;;;;;;;20.46;51.70;98352.50;5036089;28;20108;-84
2021/10/02 11:10:44;;;;;;;20.15;12.52;;;;;;;19.47;55.11;98365.88;5033155;28;20025;-85
2021/10/02 11:13:17;;;;;;;15.45;12.25;;;;;;;18.27;58.11;98347.47;5046525;28;20033;-85
2021/10/02 11:15:44;;;;;;;17.73;12.25;;;;;;;18.95;56.37;98360.81;5052209;28;20036;-84
2021/10/02 11:18:38;;;;;;;14.82;11.93;;;;;;;19.48;56.70;98361.97;5050402;28;20087;-83
2021/10/02 11:21:04;;;;;;;15.57;11.23;;;;;;;19.69;54.73;98351.59;5045204;28;20041;-86
2021/10/02 11:23:41;;;;;;;15.20;12.27;;;;;;;19.38;55.74;98357.63;5048953;28;20121;-84
2021/10/02 11:26:21;;;;;;;14.60;11.25;;;;;;;19.21;58.34;98352.25;5054384;28;20073;-83
2021/10/02 11:28:51;;;;;;;16.08;11.55;;;;;;;19.27;56.41;98360.00;5031128;28;20022;-83
2021/10/02 11:31:20;;;;;;;18.77;12.50;;;;;;;19.56;56.36;98341.63;5060745;28;20117;-85
2021/10/02 11:33:53;;;;;;;15.40;12.10;;;;;;;19.64;55.37;98349.81;5026445;28;20032;-84
2021/10/02 11:36:27;;;;;;;20.75;11.48;;;;;;;19.38;56.12;98356.81;5025888;28;20112;-83
2021/10/02 11:39:10;;;;;;;17.33;12.82;;;;;;;19.02;56.77;98349.16;5030268;28;20036;-84
2021/10/02 11:41:48;;;;;;;19.33;12.30;;;;;;;18.80;56.97;98349.53;5032335;28;20030;-81
2021/10/02 11:44:44;;;;;;;14.82;11.80;;;;;;;18.84;57.57;98340.22;5028667;28;20049;-78
2021/10/02 11:47:32;;;;;;;18.45;12.32;;;;;;;18.63;57.96;98337.47;5033330;28;20081;-81
2021/10/02 11:50:06;;;;;;;18.02;13.40;;;;;;;18.78;57.52;98333.25;5030108;28;20046;-86
2021/10/02 11:52:35;;;;;;;20.87;12.87;;;;;;;18.87;58.90;98325.66;5061157;28;20057;-80
2021/10/02 11:58:09;;;;;;;20.02;13.90;;;;;;;19.13;59.75;98317.91;5027535;28;20044;-79
2021/10/02 12:00:44;;;;;;;19.13;13.02;;;;;;;19.34;59.43;98317.03;5044339;28;20026;-78
2021/10/02 12:03:11;;;;;;;100.40;62.88;;;;;;;19.45;57.51;98315.47;5031964;28;20030;-78
2021/10/02 12:05:40;;;;;;;91.68;64.85;;;;;;;19.31;56.27;98306.63;5031788;28;20441;-78
2021/10/02 12:08:07;;;;;;;19.33;14.15;;;;;;;18.71;59.18;98302.50;5032648;28;20034;-79
2021/10/02 12:10:51;;;;;;;21.52;14.20;;;;;;;18.75;59.62;98308.16;5032533;28;20037;-79
2021/10/02 12:13:22;;;;;;;17.80;13.40;;;;;;;18.97;58.69;98316.94;5035631;28;20033;-78
2021/10/02 12:15:48;;;;;;;17.92;13.18;;;;;;;18.87;58.72;98306.25;5031346;28;20025;-79
2021/10/02 12:18:13;;;;;;;20.20;13.30;;;;;;;18.38;59.26;98298.84;5032239;28;20021;-78
2021/10/02 12:20:41;;;;;;;19.30;13.63;;;;;;;18.44;59.71;98305.78;5030542;28;20117;-79